createdAt,value
2018-01-20T00:00:49.228Z,3.18
2018-01-20T00:01:49.141Z,3.18
2018-01-20T00:02:49.057Z,3.08
2018-01-20T00:03:48.973Z,3.18
2018-01-20T00:04:48.908Z,3.25
2018-01-20T00:05:48.802Z,3.21
2018-01-20T00:06:48.722Z,3.23
2018-01-20T00:07:48.629Z,3.26
2018-01-20T00:08:48.548Z,3.22
2018-01-20T00:09:48.459Z,3.26
2018-01-20T00:10:48.374Z,3.21
2018-01-20T00:11:48.293Z,3.22
2018-01-20T00:12:48.205Z,3.11
2018-01-20T00:13:48.115Z,3.19
2018-01-20T00:14:48.033Z,3.18
2018-01-20T00:15:47.946Z,3.22
2018-01-20T00:16:48.706Z,3.18
2018-01-20T00:17:47.774Z,3.22
2018-01-20T00:18:47.690Z,3.25
2018-01-20T00:19:47.610Z,3.21
2018-01-20T00:20:47.518Z,3.19
2018-01-20T00:21:47.491Z,3.10
2018-01-20T00:22:47.349Z,3.13
2018-01-20T00:23:47.263Z,3.14
2018-01-20T00:24:47.187Z,3.18
2018-01-20T00:25:47.093Z,3.16
2018-01-20T00:26:47.025Z,3.22
2018-01-20T00:27:46.921Z,3.22
2018-01-20T00:28:46.846Z,3.11
2018-01-20T00:29:46.754Z,3.18
2018-01-20T00:30:46.666Z,3.11
2018-01-20T00:31:46.583Z,3.13
2018-01-20T00:32:46.494Z,3.18
2018-01-20T00:33:46.408Z,3.16
2018-01-20T00:34:46.345Z,3.10
2018-01-20T00:35:46.241Z,3.18
2018-01-20T00:36:46.161Z,3.11
2018-01-20T00:37:46.072Z,3.08
2018-01-20T00:38:46.041Z,3.03
2018-01-20T00:39:45.908Z,3.14
2018-01-20T00:40:45.819Z,3.10
2018-01-20T00:41:45.727Z,3.16
2018-01-20T00:42:45.640Z,3.10
2018-01-20T00:43:45.556Z,3.10
2018-01-20T00:44:45.469Z,3.07
2018-01-20T00:45:45.382Z,3.01
2018-01-20T00:46:45.317Z,2.92
2018-01-20T00:47:45.214Z,2.87
2018-01-20T00:48:45.126Z,2.77
2018-01-20T00:49:45.041Z,2.72
2018-01-20T00:50:44.960Z,2.72
2018-01-20T00:51:44.871Z,2.62
2018-01-20T00:52:44.864Z,2.61
2018-01-20T00:53:44.719Z,2.53
2018-01-20T00:54:44.615Z,2.56
2018-01-20T00:55:44.530Z,2.42
2018-01-20T00:56:44.441Z,2.49
2018-01-20T00:57:44.357Z,2.49
2018-01-20T00:58:44.276Z,2.56
2018-01-20T00:59:44.189Z,2.46
2018-01-20T01:00:44.099Z,2.49
2018-01-20T01:01:44.015Z,2.47
2018-01-20T01:02:43.929Z,2.49
2018-01-20T01:03:43.842Z,2.49
2018-01-20T01:04:43.753Z,2.53
2018-01-20T01:05:43.668Z,2.46
2018-01-20T01:06:43.587Z,2.53
2018-01-20T01:07:43.496Z,2.53
2018-01-20T01:08:43.411Z,2.56
2018-01-20T01:09:43.325Z,2.53
2018-01-20T01:10:43.246Z,2.54
2018-01-20T01:11:43.173Z,2.60
2018-01-20T01:12:43.067Z,2.61
2018-01-20T01:13:42.979Z,2.62
2018-01-20T01:14:42.894Z,2.64
2018-01-20T01:15:42.811Z,2.68
2018-01-20T01:16:42.722Z,2.68
2018-01-20T01:17:42.651Z,2.69
2018-01-20T01:18:42.567Z,2.71
2018-01-20T01:19:42.466Z,2.77
2018-01-20T01:20:42.379Z,2.80
2018-01-20T01:21:42.296Z,2.82
2018-01-20T01:22:42.265Z,2.69
2018-01-20T01:23:42.121Z,2.83
2018-01-20T01:24:42.041Z,2.77
2018-01-20T01:25:41.950Z,2.77
2018-01-20T01:26:41.866Z,2.80
2018-01-20T01:27:41.778Z,2.79
2018-01-20T01:28:41.691Z,2.77
2018-01-20T01:29:41.607Z,2.77
2018-01-20T01:30:41.520Z,2.83
2018-01-20T01:31:41.438Z,2.75
2018-01-20T01:32:41.361Z,2.83
2018-01-20T01:33:41.261Z,2.85
2018-01-20T01:34:41.177Z,2.92
2018-01-20T01:35:41.092Z,2.95
2018-01-20T01:36:41.007Z,2.90
2018-01-20T01:37:40.925Z,2.90
2018-01-20T01:38:40.836Z,2.86
2018-01-20T01:39:40.766Z,2.93
2018-01-20T01:40:40.700Z,2.95
2018-01-20T01:41:40.575Z,3.00
2018-01-20T01:42:40.500Z,2.97
2018-01-20T01:43:40.405Z,2.93
2018-01-20T01:44:40.320Z,2.93
2018-01-20T01:45:40.235Z,3.00
2018-01-20T01:46:40.150Z,2.95
2018-01-20T01:47:40.068Z,3.00
2018-01-20T01:48:39.980Z,3.07
2018-01-20T01:49:39.893Z,3.08
2018-01-20T01:50:39.806Z,3.03
2018-01-20T01:51:39.723Z,3.01
2018-01-20T01:52:39.637Z,3.01
2018-01-20T01:53:39.549Z,3.03
2018-01-20T01:54:39.466Z,3.00
2018-01-20T01:55:39.381Z,3.08
2018-01-20T01:56:39.291Z,3.05
2018-01-20T01:57:39.213Z,2.98
2018-01-20T01:58:39.122Z,3.04
2018-01-20T01:59:39.037Z,3.03
2018-01-20T02:00:38.951Z,2.95
2018-01-20T02:01:38.867Z,2.93
2018-01-20T02:02:38.783Z,2.93
2018-01-20T02:03:38.694Z,2.95
2018-01-20T02:04:38.614Z,2.92
2018-01-20T02:05:38.522Z,2.93
2018-01-20T02:06:38.449Z,2.95
2018-01-20T02:07:38.351Z,2.93
2018-01-20T02:08:38.277Z,3.00
2018-01-20T02:09:38.180Z,3.01
2018-01-20T02:10:38.094Z,3.10
2018-01-20T02:11:38.040Z,3.03
2018-01-20T02:12:37.931Z,3.00
2018-01-20T02:13:37.839Z,2.95
2018-01-20T02:14:37.756Z,2.97
2018-01-20T02:15:37.678Z,2.95
2018-01-20T02:16:37.586Z,2.92
2018-01-20T02:17:37.496Z,2.90
2018-01-20T02:18:37.411Z,2.93
2018-01-20T02:19:37.330Z,2.93
2018-01-20T02:20:37.240Z,3.00
2018-01-20T02:21:37.154Z,2.93
2018-01-20T02:22:37.076Z,3.00
2018-01-20T02:23:36.984Z,3.05
2018-01-20T02:24:36.899Z,3.03
2018-01-20T02:25:36.812Z,3.03
2018-01-20T02:26:36.729Z,3.04
2018-01-20T02:27:36.642Z,3.07
2018-01-20T02:28:36.557Z,3.08
2018-01-20T02:29:36.471Z,3.11
2018-01-20T02:30:36.394Z,3.16
2018-01-20T02:31:36.302Z,3.16
2018-01-20T02:32:36.212Z,3.08
2018-01-20T02:33:36.132Z,3.16
2018-01-20T02:34:36.052Z,3.08
2018-01-20T02:35:35.957Z,3.16
2018-01-20T02:36:35.872Z,3.13
2018-01-20T02:37:35.786Z,3.14
2018-01-20T02:38:35.700Z,3.13
2018-01-20T02:39:35.639Z,3.08
2018-01-20T02:40:35.531Z,3.16
2018-01-20T02:41:35.444Z,3.10
2018-01-20T02:42:35.358Z,3.13
2018-01-20T02:43:35.279Z,3.10
2018-01-20T02:44:35.191Z,3.11
2018-01-20T02:45:35.130Z,3.00
2018-01-20T02:46:35.017Z,3.08
2018-01-20T02:47:34.931Z,3.04
2018-01-20T02:48:34.845Z,3.00
2018-01-20T02:49:34.761Z,3.04
2018-01-20T02:50:34.672Z,3.04
2018-01-20T02:51:34.590Z,3.01
2018-01-20T02:52:34.508Z,2.97
2018-01-20T02:53:35.222Z,2.98
2018-01-20T02:54:34.337Z,3.05
2018-01-20T02:55:34.247Z,3.04
2018-01-20T02:56:34.160Z,3.04
2018-01-20T02:57:34.076Z,3.04
2018-01-20T02:58:33.992Z,3.03
2018-01-20T02:59:33.908Z,3.03
2018-01-20T03:00:33.817Z,2.97
2018-01-20T03:01:33.733Z,2.97
2018-01-20T03:02:33.654Z,2.90
2018-01-20T03:03:33.565Z,2.98
2018-01-20T03:04:33.476Z,2.95
2018-01-20T03:05:33.391Z,3.00
2018-01-20T03:06:33.348Z,2.92
2018-01-20T03:07:33.219Z,2.93
2018-01-20T03:08:33.133Z,2.85
2018-01-20T03:09:33.055Z,2.83
2018-01-20T03:10:32.963Z,2.74
2018-01-20T03:11:32.878Z,2.79
2018-01-20T03:12:32.793Z,2.79
2018-01-20T03:13:32.705Z,2.77
2018-01-20T03:14:32.627Z,2.80
2018-01-20T03:15:32.605Z,2.77
2018-01-20T03:16:32.449Z,2.75
2018-01-20T03:17:32.365Z,2.71
2018-01-20T03:18:32.277Z,2.71
2018-01-20T03:19:32.191Z,2.75
2018-01-20T03:20:32.106Z,2.75
2018-01-20T03:21:32.031Z,2.75
2018-01-20T03:22:31.934Z,2.75
2018-01-20T03:23:31.848Z,2.68
2018-01-20T03:24:31.776Z,2.72
2018-01-20T03:25:31.676Z,2.80
2018-01-20T03:26:31.594Z,2.71
2018-01-20T03:27:31.523Z,2.69
2018-01-20T03:28:31.422Z,2.72
2018-01-20T03:29:31.335Z,2.72
2018-01-20T03:30:31.261Z,2.72
2018-01-20T03:31:31.174Z,2.79
2018-01-20T03:32:31.079Z,2.77
2018-01-20T03:33:31.005Z,2.75
2018-01-20T03:34:30.911Z,2.79
2018-01-20T03:35:30.823Z,2.82
2018-01-20T03:36:30.743Z,2.75
2018-01-20T03:37:30.650Z,2.74
2018-01-20T03:38:30.561Z,2.75
2018-01-20T03:39:30.478Z,2.77
2018-01-20T03:40:30.451Z,2.69
2018-01-20T03:41:30.310Z,2.56
2018-01-20T03:42:30.217Z,2.50
2018-01-20T03:43:30.136Z,2.51
2018-01-20T03:44:30.053Z,2.50
2018-01-20T03:45:29.962Z,2.42
2018-01-20T03:46:29.874Z,2.51
2018-01-20T03:47:29.797Z,2.44
2018-01-20T03:48:29.722Z,2.44
2018-01-20T03:49:29.620Z,2.50
2018-01-20T03:50:29.553Z,2.47
2018-01-20T03:51:29.458Z,2.49
2018-01-20T03:52:29.359Z,2.46
2018-01-20T03:53:29.272Z,2.50
2018-01-20T03:54:29.188Z,2.42
2018-01-20T03:55:29.101Z,2.50
2018-01-20T03:56:29.015Z,2.47
2018-01-20T03:57:28.930Z,2.57
2018-01-20T03:58:28.844Z,2.57
2018-01-20T03:59:28.758Z,2.57
2018-01-20T04:00:28.672Z,2.56
2018-01-20T04:01:28.601Z,2.43
2018-01-20T04:02:28.514Z,2.51
2018-01-20T04:03:28.418Z,2.44
2018-01-20T04:04:28.327Z,2.39
2018-01-20T04:05:28.241Z,2.46
2018-01-20T04:06:28.156Z,2.36
2018-01-20T04:07:28.068Z,2.49
2018-01-20T04:08:27.983Z,2.46
2018-01-20T04:09:27.903Z,2.46
2018-01-20T04:10:27.811Z,2.51
2018-01-20T04:11:27.758Z,2.57
2018-01-20T04:12:27.646Z,2.53
2018-01-20T04:13:27.553Z,2.61
2018-01-20T04:14:27.467Z,2.56
2018-01-20T04:15:27.382Z,2.62
2018-01-20T04:16:27.322Z,2.60
2018-01-20T04:17:27.212Z,2.57
2018-01-20T04:18:27.126Z,2.53
2018-01-20T04:19:27.040Z,2.61
2018-01-20T04:20:26.951Z,2.60
2018-01-20T04:21:26.865Z,2.56
2018-01-20T04:22:26.778Z,2.54
2018-01-20T04:23:26.701Z,2.57
2018-01-20T04:24:26.618Z,2.62
2018-01-20T04:25:26.523Z,2.57
2018-01-20T04:26:26.437Z,2.57
2018-01-20T04:27:26.383Z,2.60
2018-01-20T04:28:26.265Z,2.72
2018-01-20T04:29:26.178Z,2.61
2018-01-20T04:30:26.096Z,2.54
2018-01-20T04:31:26.007Z,2.64
2018-01-20T04:32:25.939Z,2.61
2018-01-20T04:33:25.838Z,2.60
2018-01-20T04:34:25.764Z,2.71
2018-01-20T04:35:25.666Z,2.62
2018-01-20T04:36:25.579Z,2.53
2018-01-20T04:37:25.492Z,2.54
2018-01-20T04:38:25.405Z,2.51
2018-01-20T04:39:25.323Z,2.56
2018-01-20T04:40:25.234Z,2.53
2018-01-20T04:41:25.147Z,2.47
2018-01-20T04:42:25.065Z,2.60
2018-01-20T04:43:24.978Z,2.62
2018-01-20T04:44:24.890Z,2.54
2018-01-20T04:45:24.809Z,2.54
2018-01-20T04:46:24.761Z,2.56
2018-01-20T04:47:24.632Z,2.56
2018-01-20T04:48:24.552Z,2.53
2018-01-20T04:49:24.461Z,2.57
2018-01-20T04:50:24.378Z,2.56
2018-01-20T04:51:24.293Z,2.62
2018-01-20T04:52:24.240Z,2.57
2018-01-20T04:53:24.141Z,2.74
2018-01-20T04:54:24.040Z,2.65
2018-01-20T04:55:23.946Z,2.74
2018-01-20T04:56:23.857Z,2.75
2018-01-20T04:57:23.775Z,2.69
2018-01-20T04:58:23.690Z,2.72
2018-01-20T04:59:23.602Z,2.72
2018-01-20T05:00:23.520Z,2.80
2018-01-20T05:01:23.437Z,2.77
2018-01-20T05:02:23.344Z,2.83
2018-01-20T05:03:23.272Z,2.75
2018-01-20T05:04:23.191Z,2.80
2018-01-20T05:05:23.086Z,2.74
2018-01-20T05:06:23.004Z,2.82
2018-01-20T05:07:22.916Z,2.85
2018-01-20T05:08:22.829Z,2.82
2018-01-20T05:09:22.761Z,2.77
2018-01-20T05:10:22.659Z,2.82
2018-01-20T05:11:22.576Z,2.82
2018-01-20T05:12:22.485Z,2.71
2018-01-20T05:13:22.401Z,2.74
2018-01-20T05:14:22.316Z,2.79
2018-01-20T05:15:22.230Z,2.71
2018-01-20T05:16:22.142Z,2.79
2018-01-20T05:17:22.058Z,2.71
2018-01-20T05:18:21.975Z,2.72
2018-01-20T05:19:21.890Z,2.56
2018-01-20T05:20:21.800Z,2.56
2018-01-20T05:21:21.716Z,2.57
2018-01-20T05:22:21.631Z,2.57
2018-01-20T05:23:21.544Z,2.54
2018-01-20T05:24:21.479Z,2.54
2018-01-20T05:25:21.372Z,2.60
2018-01-20T05:26:21.285Z,2.57
2018-01-20T05:27:21.215Z,2.60
2018-01-20T05:28:21.112Z,2.60
2018-01-20T05:29:21.030Z,2.57
2018-01-20T05:30:20.944Z,2.61
2018-01-20T05:31:20.860Z,2.61
2018-01-20T05:32:20.769Z,2.57
2018-01-20T05:33:20.706Z,2.57
2018-01-20T05:34:20.598Z,2.62
2018-01-20T05:35:20.523Z,2.62
2018-01-20T05:36:20.438Z,2.60
2018-01-20T05:37:20.342Z,2.61
2018-01-20T05:38:20.256Z,2.60
2018-01-20T05:39:20.171Z,2.68
2018-01-20T05:40:20.083Z,2.62
2018-01-20T05:41:19.997Z,2.67
2018-01-20T05:42:19.914Z,2.67
2018-01-20T05:43:19.837Z,2.68
2018-01-20T05:44:19.741Z,2.69
2018-01-20T05:45:19.671Z,2.65
2018-01-20T05:46:19.572Z,2.61
2018-01-20T05:47:19.484Z,2.64
2018-01-20T05:48:19.397Z,2.56
2018-01-20T05:49:19.314Z,2.56
2018-01-20T05:50:19.227Z,2.61
2018-01-20T05:51:19.146Z,2.56
2018-01-20T05:52:19.055Z,2.56
2018-01-20T05:53:18.972Z,2.57
2018-01-20T05:54:18.885Z,2.62
2018-01-20T05:55:18.813Z,2.60
2018-01-20T05:56:18.710Z,2.54
2018-01-20T05:57:18.627Z,2.61
2018-01-20T05:58:18.539Z,2.57
2018-01-20T05:59:18.454Z,2.54
2018-01-20T06:00:18.369Z,2.60
2018-01-20T06:01:18.282Z,2.57
2018-01-20T06:02:18.196Z,2.77
2018-01-20T06:03:18.133Z,2.68
2018-01-20T06:04:18.025Z,2.61
2018-01-20T06:05:17.954Z,2.67
2018-01-20T06:06:17.866Z,2.67
2018-01-20T06:07:17.790Z,2.67
2018-01-20T06:08:17.680Z,2.72
2018-01-20T06:09:17.594Z,2.75
2018-01-20T06:10:17.510Z,2.79
2018-01-20T06:11:17.428Z,2.75
2018-01-20T06:12:17.348Z,2.72
2018-01-20T06:13:17.254Z,2.71
2018-01-20T06:14:17.181Z,2.74
2018-01-20T06:15:17.082Z,2.71
2018-01-20T06:16:17.028Z,2.75
2018-01-20T06:17:16.915Z,2.72
2018-01-20T06:18:16.825Z,2.71
2018-01-20T06:19:16.738Z,2.72
2018-01-20T06:20:16.655Z,2.69
2018-01-20T06:21:16.580Z,2.67
2018-01-20T06:22:16.483Z,2.71
2018-01-20T06:23:16.393Z,2.72
2018-01-20T06:24:16.308Z,2.68
2018-01-20T06:25:16.228Z,2.71
2018-01-20T06:26:16.138Z,2.68
2018-01-20T06:27:16.063Z,2.61
2018-01-20T06:28:15.965Z,2.49
2018-01-20T06:29:15.880Z,2.56
2018-01-20T06:30:15.795Z,2.54
2018-01-20T06:31:15.709Z,2.56
2018-01-20T06:32:15.621Z,2.47
2018-01-20T06:33:15.534Z,2.43
2018-01-20T06:34:15.456Z,2.43
2018-01-20T06:35:15.366Z,2.54
2018-01-20T06:36:15.282Z,2.47
2018-01-20T06:37:15.202Z,2.51
2018-01-20T06:38:15.109Z,2.46
2018-01-20T06:39:15.028Z,2.39
2018-01-20T06:40:14.934Z,2.44
2018-01-20T06:41:14.851Z,2.44
2018-01-20T06:42:14.764Z,2.39
2018-01-20T06:43:14.678Z,2.36
2018-01-20T06:44:14.595Z,2.43
2018-01-20T06:45:14.504Z,2.43
2018-01-20T06:46:14.421Z,2.43
2018-01-20T06:47:14.333Z,2.42
2018-01-20T06:48:14.246Z,2.46
2018-01-20T06:49:14.160Z,2.50
2018-01-20T06:50:14.082Z,2.44
2018-01-20T06:51:13.992Z,2.56
2018-01-20T06:52:13.902Z,2.61
2018-01-20T06:53:13.817Z,2.56
2018-01-20T06:54:13.732Z,2.53
2018-01-20T06:55:13.648Z,2.57
2018-01-20T06:56:13.558Z,2.60
2018-01-20T06:57:13.477Z,2.56
2018-01-20T06:58:13.403Z,2.57
2018-01-20T06:59:13.303Z,2.57
2018-01-20T07:00:13.214Z,2.47
2018-01-20T07:01:13.129Z,2.60
2018-01-20T07:02:13.046Z,2.60
2018-01-20T07:03:13.780Z,2.51
2018-01-20T07:04:12.873Z,2.44
2018-01-20T07:05:12.786Z,2.50
2018-01-20T07:06:12.700Z,2.43
2018-01-20T07:07:12.612Z,2.42
2018-01-20T07:08:12.548Z,2.46
2018-01-20T07:09:12.442Z,2.60
2018-01-20T07:10:12.364Z,2.46
2018-01-20T07:11:12.270Z,2.53
2018-01-20T07:12:12.182Z,2.46
2018-01-20T07:13:12.096Z,2.36
2018-01-20T07:14:12.010Z,2.44
2018-01-20T07:15:11.924Z,2.44
2018-01-20T07:16:11.838Z,2.47
2018-01-20T07:17:11.751Z,2.50
2018-01-20T07:18:11.667Z,2.43
2018-01-20T07:19:11.592Z,2.56
2018-01-20T07:20:11.494Z,2.54
2018-01-20T07:21:11.415Z,2.57
2018-01-20T07:22:11.325Z,2.44
2018-01-20T07:23:11.236Z,2.50
2018-01-20T07:24:11.148Z,2.60
2018-01-20T07:25:11.064Z,2.60
2018-01-20T07:26:11.014Z,2.60
2018-01-20T07:27:10.892Z,2.44
2018-01-20T07:28:10.808Z,2.56
2018-01-20T07:29:10.721Z,2.57
2018-01-20T07:30:10.655Z,2.56
2018-01-20T07:31:10.564Z,2.44
2018-01-20T07:32:10.461Z,2.46
2018-01-20T07:33:10.377Z,2.42
2018-01-20T07:34:10.288Z,2.54
2018-01-20T07:35:10.203Z,2.54
2018-01-20T07:36:10.120Z,2.54
2018-01-20T07:37:10.061Z,2.53
2018-01-20T07:38:09.946Z,2.57
2018-01-20T07:39:09.858Z,2.72
2018-01-20T07:40:09.773Z,2.60
2018-01-20T07:41:09.698Z,2.71
2018-01-20T07:42:09.601Z,2.72
2018-01-20T07:43:09.519Z,2.71
2018-01-20T07:44:09.429Z,2.67
2018-01-20T07:45:10.257Z,2.79
2018-01-20T07:46:09.258Z,2.74
2018-01-20T07:47:09.171Z,2.77
2018-01-20T07:48:09.084Z,2.77
2018-01-20T07:49:09.005Z,2.77
2018-01-20T07:50:08.917Z,2.82
2018-01-20T07:51:08.841Z,2.85
2018-01-20T07:52:08.746Z,2.86
2018-01-20T07:53:08.656Z,2.83
2018-01-20T07:54:08.571Z,2.83
2018-01-20T07:55:08.486Z,2.74
2018-01-20T07:56:08.400Z,2.86
2018-01-20T07:57:08.315Z,2.95
2018-01-20T07:58:08.226Z,2.92
2018-01-20T07:59:08.143Z,2.86
2018-01-20T08:00:08.056Z,2.89
2018-01-20T08:01:07.978Z,2.89
2018-01-20T08:02:07.886Z,2.89
2018-01-20T08:03:07.806Z,2.93
2018-01-20T08:04:07.714Z,2.89
2018-01-20T08:05:07.627Z,2.86
2018-01-20T08:06:07.541Z,2.83
2018-01-20T08:07:07.454Z,2.80
2018-01-20T08:08:07.369Z,2.75
2018-01-20T08:09:07.299Z,2.74
2018-01-20T08:10:07.200Z,2.74
2018-01-20T08:11:07.114Z,2.74
2018-01-20T08:12:07.029Z,2.71
2018-01-20T08:13:06.962Z,2.65
2018-01-20T08:14:06.857Z,2.69
2018-01-20T08:15:06.771Z,2.77
2018-01-20T08:16:06.684Z,2.69
2018-01-20T08:17:06.601Z,2.86
2018-01-20T08:18:06.514Z,2.77
2018-01-20T08:19:06.430Z,2.86
2018-01-20T08:20:06.341Z,2.93
2018-01-20T08:21:06.254Z,2.89
2018-01-20T08:22:06.223Z,2.90
2018-01-20T08:23:06.107Z,2.93
2018-01-20T08:24:06.030Z,2.98
2018-01-20T08:25:05.912Z,2.93
2018-01-20T08:26:05.830Z,3.07
2018-01-20T08:27:05.743Z,3.07
2018-01-20T08:28:05.654Z,3.00
2018-01-20T08:29:05.569Z,3.10
2018-01-20T08:30:05.510Z,3.16
2018-01-20T08:31:05.398Z,3.19
2018-01-20T08:32:05.329Z,3.18
2018-01-20T08:33:05.228Z,3.22
2018-01-20T08:34:05.143Z,3.23
2018-01-20T08:35:05.059Z,3.22
2018-01-20T08:36:04.974Z,3.21
2018-01-20T08:37:04.886Z,3.29
2018-01-20T08:38:04.802Z,3.32
2018-01-20T08:39:04.715Z,3.28
2018-01-20T08:40:04.631Z,3.44
2018-01-20T08:41:04.553Z,3.42
2018-01-20T08:42:04.471Z,3.45
2018-01-20T08:43:04.379Z,3.51
2018-01-20T08:44:05.456Z,3.37
2018-01-20T08:45:04.203Z,3.50
2018-01-20T08:46:04.117Z,3.47
2018-01-20T08:47:04.034Z,3.53
2018-01-20T08:48:03.950Z,3.62
2018-01-20T08:49:03.863Z,3.51
2018-01-20T08:50:03.776Z,3.55
2018-01-20T08:51:03.737Z,3.63
2018-01-20T08:52:03.609Z,3.59
2018-01-20T08:53:03.524Z,3.58
2018-01-20T08:54:03.441Z,3.60
2018-01-20T08:55:03.352Z,3.60
2018-01-20T08:56:03.268Z,3.56
2018-01-20T08:57:03.182Z,3.56
2018-01-20T08:58:03.099Z,3.66
2018-01-20T08:59:03.013Z,3.65
2018-01-20T09:00:02.926Z,3.65
2018-01-20T09:01:02.840Z,3.69
2018-01-20T09:02:02.758Z,3.70
2018-01-20T09:03:02.674Z,3.78
2018-01-20T09:04:02.587Z,3.77
2018-01-20T09:05:02.502Z,3.81
2018-01-20T09:06:02.417Z,3.87
2018-01-20T09:07:02.332Z,3.83
2018-01-20T09:08:02.284Z,3.92
2018-01-20T09:09:02.163Z,3.98
2018-01-20T09:10:02.098Z,3.96
2018-01-20T09:11:01.992Z,4.06
2018-01-20T09:12:01.916Z,4.12
2018-01-20T09:13:01.826Z,4.17
2018-01-20T09:14:01.744Z,4.05
2018-01-20T09:15:01.654Z,4.19
2018-01-20T09:16:01.571Z,4.20
2018-01-20T09:17:01.485Z,4.10
2018-01-20T09:18:01.402Z,4.17
2018-01-20T09:19:01.340Z,4.12
2018-01-20T09:20:01.232Z,4.20
2018-01-20T09:21:01.147Z,4.17
2018-01-20T09:22:01.068Z,4.16
2018-01-20T09:23:00.979Z,4.08
2018-01-20T09:24:00.895Z,4.14
2018-01-20T09:25:00.810Z,4.01
2018-01-20T09:26:00.725Z,4.06
2018-01-20T09:27:00.642Z,3.94
2018-01-20T09:28:00.556Z,3.94
2018-01-20T09:29:00.475Z,3.96
2018-01-20T09:30:00.396Z,3.95
2018-01-20T09:33:33.270Z,4.05
2018-01-20T09:34:33.134Z,4.08
2018-01-20T09:36:36.927Z,4.04
2018-01-20T09:37:36.849Z,3.91
2018-01-20T09:39:40.697Z,3.96
2018-01-20T09:40:40.547Z,3.98
2018-01-20T09:42:44.389Z,3.96
2018-01-20T09:43:44.251Z,3.98
2018-01-20T09:44:44.167Z,3.95
2018-01-20T09:45:44.080Z,4.16
2018-01-20T09:46:43.994Z,4.22
2018-01-20T09:47:43.914Z,4.12
2018-01-20T09:48:43.827Z,4.20
2018-01-20T09:49:43.742Z,4.35
2018-01-20T09:50:43.658Z,4.49
2018-01-20T09:51:43.593Z,4.42
2018-01-20T09:52:43.489Z,4.48
2018-01-20T09:53:43.407Z,4.53
2018-01-20T09:54:43.318Z,4.45
2018-01-20T09:55:43.234Z,4.49
2018-01-20T09:56:43.151Z,4.48
2018-01-20T09:57:43.071Z,4.53
2018-01-20T09:58:42.980Z,4.59
2018-01-20T09:59:42.898Z,4.60
2018-01-20T10:00:42.828Z,4.55
2018-01-20T10:01:42.731Z,4.55
2018-01-20T10:02:42.648Z,4.52
2018-01-20T10:03:42.563Z,4.49
2018-01-20T10:04:42.479Z,4.49
2018-01-20T10:05:42.393Z,4.52
2018-01-20T10:06:42.308Z,4.55
2018-01-20T10:07:42.224Z,4.62
2018-01-20T10:08:42.143Z,4.60
2018-01-20T10:09:42.059Z,4.66
2018-01-20T10:10:41.972Z,4.59
2018-01-20T10:11:41.891Z,4.58
2018-01-20T10:12:41.805Z,4.56
2018-01-20T10:13:41.728Z,4.58
2018-01-20T10:14:41.641Z,4.49
2018-01-20T10:15:41.553Z,4.40
2018-01-20T10:16:41.474Z,4.44
2018-01-20T10:17:41.389Z,4.58
2018-01-20T10:18:41.302Z,4.58
2018-01-20T10:19:41.217Z,4.60
2018-01-20T10:20:41.135Z,4.63
2018-01-20T10:21:41.051Z,4.75
2018-01-20T10:22:40.963Z,4.77
2018-01-20T10:23:40.879Z,4.71
2018-01-20T10:24:40.796Z,4.87
2018-01-20T10:25:40.728Z,4.82
2018-01-20T10:26:40.631Z,4.77
2018-01-20T10:27:40.544Z,4.66
2018-01-20T10:28:40.472Z,4.63
2018-01-20T10:29:40.376Z,4.60
2018-01-20T10:30:40.293Z,4.67
2018-01-20T10:31:40.213Z,4.63
2018-01-20T10:32:40.127Z,4.58
2018-01-20T10:33:40.049Z,4.70
2018-01-20T10:34:39.958Z,4.66
2018-01-20T10:35:39.877Z,4.63
2018-01-20T10:36:39.794Z,4.75
2018-01-20T10:37:39.708Z,4.78
2018-01-20T10:38:39.633Z,4.80
2018-01-20T10:39:39.541Z,4.94
2018-01-20T10:40:39.455Z,5.07
2018-01-20T10:41:39.376Z,5.10
2018-01-20T10:42:39.286Z,5.02
2018-01-20T10:43:39.204Z,5.11
2018-01-20T10:44:39.120Z,5.15
2018-01-20T10:45:39.038Z,5.14
2018-01-20T10:46:38.953Z,5.20
2018-01-20T10:47:38.871Z,5.28
2018-01-20T10:48:38.787Z,5.28
2018-01-20T10:49:38.702Z,5.54
2018-01-20T10:50:38.618Z,5.80
2018-01-20T10:51:38.533Z,5.94
2018-01-20T10:52:38.454Z,6.20
2018-01-20T10:53:38.368Z,6.33
2018-01-20T10:54:38.286Z,6.57
2018-01-20T10:55:38.201Z,6.52
2018-01-20T10:56:38.122Z,6.17
2018-01-20T10:57:38.038Z,6.09
2018-01-20T10:58:37.965Z,6.14
2018-01-20T10:59:37.868Z,6.12
2018-01-20T11:00:37.787Z,6.05
2018-01-20T11:01:37.706Z,6.08
2018-01-20T11:02:37.623Z,5.98
2018-01-20T11:03:37.539Z,5.73
2018-01-20T11:04:37.459Z,5.66
2018-01-20T11:05:37.377Z,5.61
2018-01-20T11:06:37.292Z,5.33
2018-01-20T11:07:37.208Z,5.38
2018-01-20T11:08:37.128Z,5.26
2018-01-20T11:09:37.045Z,5.21
2018-01-20T11:10:36.964Z,5.20
2018-01-20T11:11:36.880Z,5.14
2018-01-20T11:12:36.800Z,5.20
2018-01-20T11:13:36.717Z,5.21
2018-01-20T11:14:36.636Z,5.17
2018-01-20T11:15:36.548Z,5.25
2018-01-20T11:16:36.472Z,5.35
2018-01-20T11:17:36.385Z,5.33
2018-01-20T11:18:36.304Z,5.32
2018-01-20T11:19:36.218Z,5.44
2018-01-20T11:20:36.135Z,5.47
2018-01-20T11:21:36.053Z,5.54
2018-01-20T11:22:35.969Z,5.76
2018-01-20T11:23:35.885Z,5.98
2018-01-20T11:24:35.801Z,5.98
2018-01-20T11:25:35.722Z,5.98
2018-01-20T11:26:35.648Z,6.04
2018-01-20T11:27:35.556Z,5.93
2018-01-20T11:28:35.473Z,5.94
2018-01-20T11:29:35.390Z,5.90
2018-01-20T11:30:35.340Z,5.87
2018-01-20T11:31:35.224Z,5.75
2018-01-20T11:32:35.142Z,5.80
2018-01-20T11:33:35.063Z,5.80
2018-01-20T11:34:34.988Z,5.82
2018-01-20T11:35:34.895Z,5.80
2018-01-20T11:36:34.812Z,5.87
2018-01-20T11:37:34.730Z,5.91
2018-01-20T11:38:34.647Z,5.66
2018-01-20T11:39:34.566Z,5.57
2018-01-20T11:40:34.482Z,5.48
2018-01-20T11:41:34.402Z,5.50
2018-01-20T11:42:34.317Z,5.65
2018-01-20T11:43:34.236Z,5.48
2018-01-20T11:44:34.152Z,5.44
2018-01-20T11:45:34.069Z,5.36
2018-01-20T11:46:33.989Z,5.30
2018-01-20T11:47:33.906Z,5.44
2018-01-20T11:48:33.825Z,5.39
2018-01-20T11:49:33.743Z,5.21
2018-01-20T11:50:33.657Z,5.05
2018-01-20T11:51:33.579Z,5.02
2018-01-20T11:52:33.496Z,5.12
2018-01-20T11:53:33.410Z,5.12
2018-01-20T11:54:33.331Z,5.25
2018-01-20T11:55:33.244Z,5.30
2018-01-20T11:56:33.162Z,5.30
2018-01-20T11:57:33.080Z,5.30
2018-01-20T11:58:32.998Z,5.30
2018-01-20T11:59:32.936Z,5.32
2018-01-20T12:00:32.830Z,5.36
2018-01-20T12:01:32.749Z,5.30
2018-01-20T12:02:32.670Z,5.43
2018-01-20T12:03:32.581Z,5.54
2018-01-20T12:04:32.499Z,5.56
2018-01-20T12:05:32.417Z,5.66
2018-01-20T12:06:32.332Z,5.75
2018-01-20T12:07:32.249Z,5.94
2018-01-20T12:08:32.166Z,6.02
2018-01-20T12:09:32.084Z,6.16
2018-01-20T12:10:32.002Z,6.26
2018-01-20T12:11:31.920Z,6.09
2018-01-20T12:12:31.839Z,6.05
2018-01-20T12:13:31.768Z,5.91
2018-01-20T12:14:31.671Z,6.02
2018-01-20T12:15:31.590Z,5.98
2018-01-20T12:16:31.507Z,5.91
2018-01-20T12:17:31.424Z,5.97
2018-01-20T12:18:31.343Z,5.90
2018-01-20T12:19:31.262Z,5.97
2018-01-20T12:20:31.180Z,6.02
2018-01-20T12:21:31.097Z,6.08
2018-01-20T12:22:31.011Z,6.11
2018-01-20T12:23:30.936Z,6.24
2018-01-20T12:24:30.850Z,6.14
2018-01-20T12:25:30.767Z,6.11
2018-01-20T12:26:30.684Z,5.93
2018-01-20T12:27:30.601Z,6.01
2018-01-20T12:28:30.522Z,6.02
2018-01-20T12:29:30.437Z,5.90
2018-01-20T12:30:30.353Z,5.87
2018-01-20T12:31:30.274Z,5.89
2018-01-20T12:32:30.192Z,5.97
2018-01-20T12:33:30.107Z,5.91
2018-01-20T12:34:30.028Z,5.98
2018-01-20T12:35:29.950Z,5.93
2018-01-20T12:36:29.862Z,5.91
2018-01-20T12:37:29.788Z,6.04
2018-01-20T12:38:29.707Z,6.27
2018-01-20T12:39:29.620Z,6.17
2018-01-20T12:40:29.535Z,6.19
2018-01-20T12:41:29.451Z,6.19
2018-01-20T12:42:29.367Z,6.22
2018-01-20T12:43:29.288Z,6.20
2018-01-20T12:44:29.204Z,6.36
2018-01-20T12:45:29.124Z,6.42
2018-01-20T12:46:29.042Z,6.36
2018-01-20T12:47:28.958Z,6.51
2018-01-20T12:48:28.889Z,6.49
2018-01-20T12:49:28.796Z,6.39
2018-01-20T12:50:28.715Z,6.26
2018-01-20T12:51:28.632Z,6.07
2018-01-20T12:52:28.565Z,6.11
2018-01-20T12:53:28.468Z,6.04
2018-01-20T12:54:28.386Z,5.99
2018-01-20T12:55:28.307Z,5.98
2018-01-20T12:56:28.222Z,6.09
2018-01-20T12:57:28.140Z,5.91
2018-01-20T12:58:28.057Z,5.91
2018-01-20T12:59:28.010Z,5.97
2018-01-20T13:00:27.893Z,5.91
2018-01-20T13:01:27.814Z,5.90
2018-01-20T13:02:27.729Z,5.84
2018-01-20T13:03:27.646Z,5.59
2018-01-20T13:04:27.564Z,5.56
2018-01-20T13:05:27.503Z,5.50
2018-01-20T13:06:27.399Z,5.44
2018-01-20T13:07:27.318Z,5.44
2018-01-20T13:08:27.236Z,5.32
2018-01-20T13:09:27.157Z,5.17
2018-01-20T13:10:27.072Z,5.21
2018-01-20T13:11:26.988Z,5.14
2018-01-20T13:12:26.908Z,5.11
2018-01-20T13:13:26.831Z,5.04
2018-01-20T13:14:26.738Z,4.90
2018-01-20T13:15:26.655Z,4.89
2018-01-20T13:16:26.581Z,4.90
2018-01-20T13:17:26.500Z,4.92
2018-01-20T13:18:26.406Z,4.97
2018-01-20T13:19:26.324Z,4.87
2018-01-20T13:20:26.243Z,4.82
2018-01-20T13:21:26.159Z,4.82
2018-01-20T13:22:26.081Z,4.74
2018-01-20T13:23:25.991Z,4.66